Time;durP1;ratioP1;P1;durP2;ratioP2;P2;SDS_P1;SDS_P2;PMS_P1;PMS_P2;Temp;Humidity;BMP_temperature;BMP_pressure;BME280_temperature;BME280_humidity;BME280_pressure;Samples;Min_cycle;Max_cycle;Signal;HPM_P1;HPM_P2
2022/09/15 00:01:52;;;;;;;1.90;1.80;;;;;;;;;;5085930;28;20267;-69
2022/09/15 00:04:20;;;;;;;3.17;1.48;;;;;;;;;;5085602;28;20504;-69
2022/09/15 00:06:46;;;;;;;1.90;1.60;;;;;;;;;;5085676;28;20239;-69
2022/09/15 00:09:13;;;;;;;4.35;1.88;;;;;;;;;;5085551;28;20193;-70
2022/09/15 00:11:39;;;;;;;3.50;1.60;;;;;;;;;;5085839;28;20203;-69
2022/09/15 00:14:06;;;;;;;4.20;1.70;;;;;;;;;;5085173;28;20473;-69
2022/09/15 00:16:32;;;;;;;2.35;1.38;;;;;;;;;;5085767;28;20196;-70
2022/09/15 00:18:59;;;;;;;4.80;1.83;;;;;;;;;;5085472;28;20197;-69
2022/09/15 00:21:27;;;;;;;2.97;2.00;;;;;;;;;;5085443;28;20196;-69
2022/09/15 00:23:54;;;;;;;2.90;1.77;;;;;;;;;;5085332;28;20401;-71
2022/09/15 00:26:22;;;;;;;2.10;1.40;;;;;;;;;;5085124;28;20528;-70
2022/09/15 00:28:48;;;;;;;2.63;1.90;;;;;;;;;;5085382;28;20204;-70
2022/09/15 00:31:16;;;;;;;1.95;1.60;;;;;;;;;;5085459;28;20205;-70
2022/09/15 00:33:42;;;;;;;4.20;2.10;;;;;;;;;;5085003;28;20204;-70
2022/09/15 00:36:10;;;;;;;3.38;1.70;;;;;;;;;;5085236;28;20203;-70
2022/09/15 00:38:38;;;;;;;1.70;1.60;;;;;;;;;;5084994;28;20196;-70
2022/09/15 00:41:05;;;;;;;6.88;2.00;;;;;;;;;;5084895;28;20447;-70
2022/09/15 00:43:42;;;;;;;2.35;1.73;;;;;;;;;;5084961;28;20201;-70
2022/09/15 00:46:09;;;;;;;5.20;1.77;;;;;;;;;;5085027;28;20195;-70
2022/09/15 00:48:37;;;;;;;4.43;1.83;;;;;;;;;;5084872;28;20234;-70
2022/09/15 00:51:05;;;;;;;6.20;1.77;;;;;;;;;;5084900;28;20197;-70
2022/09/15 00:53:32;;;;;;;1.30;1.30;;;;;;;;;;5084423;28;20200;-70
2022/09/15 00:56:02;;;;;;;4.05;1.88;;;;;;;;;;5084975;28;20203;-70
2022/09/15 00:58:30;;;;;;;1.70;1.60;;;;;;;;;;5084957;28;20428;-70
2022/09/15 01:00:57;;;;;;;5.20;2.00;;;;;;;;;;5084323;28;20220;-70
2022/09/15 01:03:24;;;;;;;1.90;1.80;;;;;;;;;;5084298;28;20203;-70
2022/09/15 01:05:52;;;;;;;2.80;1.77;;;;;;;;;;5084494;28;20222;-70
2022/09/15 01:08:23;;;;;;;3.60;1.48;;;;;;;;;;5084723;28;20211;-70
2022/09/15 01:10:50;;;;;;;1.77;1.50;;;;;;;;;;5084703;28;20200;-70
2022/09/15 01:13:18;;;;;;;4.00;1.60;;;;;;;;;;5084196;28;20196;-70
2022/09/15 01:15:49;;;;;;;2.75;1.88;;;;;;;;;;5084559;28;20362;-70
2022/09/15 01:18:20;;;;;;;1.90;1.52;;;;;;;;;;5084455;28;20211;-70
2022/09/15 01:20:58;;;;;;;2.83;1.60;;;;;;;;;;5084439;28;20220;-70
2022/09/15 01:23:39;;;;;;;2.25;1.52;;;;;;;;;;5084169;28;20210;-70
2022/09/15 01:26:19;;;;;;;4.57;1.60;;;;;;;;;;5081232;28;20205;-70
2022/09/15 01:29:02;;;;;;;1.75;1.35;;;;;;;;;;5084417;28;20197;-70
2022/09/15 01:31:34;;;;;;;3.60;1.52;;;;;;;;;;5084310;28;20432;-70
2022/09/15 01:34:01;;;;;;;1.70;1.60;;;;;;;;;;5083876;28;20204;-70
2022/09/15 01:36:32;;;;;;;2.92;1.58;;;;;;;;;;5083994;28;20200;-70
2022/09/15 01:39:00;;;;;;;2.80;1.50;;;;;;;;;;5084155;28;20212;-70
2022/09/15 01:41:29;;;;;;;1.65;1.48;;;;;;;;;;5083704;28;20227;-70
2022/09/15 01:43:59;;;;;;;2.17;1.30;;;;;;;;;;5083755;28;20196;-70
2022/09/15 01:46:27;;;;;;;1.33;1.20;;;;;;;;;;5083881;28;20494;-70
2022/09/15 01:48:56;;;;;;;4.75;1.40;;;;;;;;;;5083624;28;20240;-70
2022/09/15 01:51:23;;;;;;;1.63;1.20;;;;;;;;;;5083958;28;20231;-70
2022/09/15 01:53:51;;;;;;;2.78;1.33;;;;;;;;;;5083476;28;20231;-70
2022/09/15 01:56:17;;;;;;;1.70;1.60;;;;;;;;;;5083738;28;20197;-70
2022/09/15 01:58:44;;;;;;;2.95;1.52;;;;;;;;;;5083507;28;20196;-70
2022/09/15 02:01:13;;;;;;;4.32;1.40;;;;;;;;;;5083457;28;20220;-70
2022/09/15 02:03:43;;;;;;;2.55;1.38;;;;;;;;;;5083318;28;20202;-70
2022/09/15 02:06:15;;;;;;;2.35;1.50;;;;;;;;;;5083386;28;20222;-70
2022/09/15 02:08:44;;;;;;;4.28;1.40;;;;;;;;;;5083462;28;20251;-70
2022/09/15 02:11:15;;;;;;;1.63;1.30;;;;;;;;;;5083468;28;20199;-70
2022/09/15 02:13:47;;;;;;;1.73;1.63;;;;;;;;;;5082174;28;20227;-70
2022/09/15 02:16:18;;;;;;;2.17;1.20;;;;;;;;;;5083444;28;20197;-70
2022/09/15 02:18:59;;;;;;;1.20;1.15;;;;;;;;;;5083422;28;20196;-70
2022/09/15 02:21:28;;;;;;;2.33;1.35;;;;;;;;;;5083047;28;20223;-70
2022/09/15 02:23:57;;;;;;;1.55;1.20;;;;;;;;;;5082865;28;20197;-70
2022/09/15 02:26:25;;;;;;;1.10;1.10;;;;;;;;;;5082867;28;20208;-70
2022/09/15 02:28:54;;;;;;;1.85;1.00;;;;;;;;;;5083163;28;20196;-70
2022/09/15 02:31:22;;;;;;;1.25;1.08;;;;;;;;;;5083079;28;20200;-70
2022/09/15 02:33:51;;;;;;;1.10;1.05;;;;;;;;;;5082756;28;20234;-70
2022/09/15 02:36:18;;;;;;;1.33;0.98;;;;;;;;;;5082931;28;20218;-70
2022/09/15 02:38:48;;;;;;;1.88;1.13;;;;;;;;;;5082600;28;20207;-70
2022/09/15 02:41:16;;;;;;;3.40;1.35;;;;;;;;;;5082691;28;20220;-70
2022/09/15 02:43:44;;;;;;;1.30;1.20;;;;;;;;;;5082592;28;20196;-70
2022/09/15 02:46:11;;;;;;;1.75;1.15;;;;;;;;;;5082782;28;20200;-70
2022/09/15 02:48:37;;;;;;;1.20;0.98;;;;;;;;;;5082607;28;20200;-70
2022/09/15 02:51:03;;;;;;;1.33;1.17;;;;;;;;;;5082534;28;20193;-70
2022/09/15 02:53:29;;;;;;;2.72;1.25;;;;;;;;;;5082597;28;20201;-70
2022/09/15 02:55:57;;;;;;;3.15;1.10;;;;;;;;;;5082922;28;20310;-70
2022/09/15 02:58:23;;;;;;;1.15;1.10;;;;;;;;;;5082641;28;20200;-70
2022/09/15 03:00:50;;;;;;;2.42;1.15;;;;;;;;;;5082443;28;20224;-70
2022/09/15 03:03:17;;;;;;;1.20;1.00;;;;;;;;;;5082267;28;20263;-70
2022/09/15 03:05:44;;;;;;;4.22;1.30;;;;;;;;;;5082239;28;20224;-70
2022/09/15 03:08:10;;;;;;;4.57;1.10;;;;;;;;;;5082592;28;20200;-70
2022/09/15 03:10:36;;;;;;;1.25;0.90;;;;;;;;;;5082576;28;20215;-70
2022/09/15 03:13:04;;;;;;;1.23;1.13;;;;;;;;;;5082155;28;20265;-70
2022/09/15 03:15:30;;;;;;;1.80;1.10;;;;;;;;;;5082431;28;20196;-70
2022/09/15 03:17:56;;;;;;;1.27;1.20;;;;;;;;;;5082210;28;20202;-70
2022/09/15 03:20:24;;;;;;;5.03;1.27;;;;;;;;;;5082207;28;20224;-70
2022/09/15 03:22:51;;;;;;;2.15;1.42;;;;;;;;;;5082245;28;20271;-70
2022/09/15 03:25:17;;;;;;;1.48;1.38;;;;;;;;;;5081883;28;20208;-70
2022/09/15 03:27:43;;;;;;;1.77;1.05;;;;;;;;;;5082263;28;20203;-70
2022/09/15 03:30:12;;;;;;;3.90;1.70;;;;;;;;;;5082620;28;20531;-70
2022/09/15 03:32:38;;;;;;;5.15;4.63;;;;;;;;;;5081961;28;20202;-70
2022/09/15 03:35:05;;;;;;;4.00;3.30;;;;;;;;;;5082540;28;20204;-70
2022/09/15 03:37:32;;;;;;;4.00;2.13;;;;;;;;;;5082285;28;20200;-70
2022/09/15 03:39:58;;;;;;;1.42;1.30;;;;;;;;;;5082139;28;20204;-70
2022/09/15 03:42:24;;;;;;;3.15;1.85;;;;;;;;;;5081919;28;20533;-70
2022/09/15 03:44:51;;;;;;;2.38;1.70;;;;;;;;;;5082024;28;20197;-70
2022/09/15 03:47:18;;;;;;;1.52;1.35;;;;;;;;;;5082016;28;20197;-70
2022/09/15 03:49:45;;;;;;;1.50;1.40;;;;;;;;;;5082137;28;20268;-70
2022/09/15 03:52:11;;;;;;;7.13;4.07;;;;;;;;;;5081602;28;20192;-70
2022/09/15 03:54:37;;;;;;;5.30;4.45;;;;;;;;;;5082005;28;20196;-70
2022/09/15 03:57:04;;;;;;;4.10;2.15;;;;;;;;;;5082072;28;20496;-70
2022/09/15 03:59:30;;;;;;;1.55;1.45;;;;;;;;;;5082080;28;20197;-70
2022/09/15 04:01:56;;;;;;;1.38;1.27;;;;;;;;;;5081712;28;20220;-70
2022/09/15 04:04:24;;;;;;;3.08;2.88;;;;;;;;;;5081847;28;20211;-70
2022/09/15 04:06:50;;;;;;;2.72;1.48;;;;;;;;;;5081924;28;20204;-70
2022/09/15 04:09:16;;;;;;;2.10;1.92;;;;;;;;;;5082018;28;20242;-70
2022/09/15 04:11:43;;;;;;;6.88;1.10;;;;;;;;;;5081797;28;20263;-70
2022/09/15 04:14:09;;;;;;;1.30;1.15;;;;;;;;;;5081560;28;20243;-70
2022/09/15 04:16:35;;;;;;;3.65;1.13;;;;;;;;;;5081705;28;20476;-70
2022/09/15 04:19:01;;;;;;;2.03;1.45;;;;;;;;;;5081912;28;20388;-70
2022/09/15 04:21:30;;;;;;;1.95;1.45;;;;;;;;;;5081532;28;20427;-70
2022/09/15 04:23:57;;;;;;;1.33;1.00;;;;;;;;;;5081312;28;20204;-70
2022/09/15 04:26:25;;;;;;;1.00;0.85;;;;;;;;;;5082541;28;20251;-73
2022/09/15 04:28:52;;;;;;;1.80;1.05;;;;;;;;;;5083774;28;20204;-70
2022/09/15 04:31:19;;;;;;;3.50;1.10;;;;;;;;;;5081601;28;20366;-70
2022/09/15 04:33:45;;;;;;;2.95;1.50;;;;;;;;;;5081434;28;20196;-70
2022/09/15 04:36:12;;;;;;;1.10;1.00;;;;;;;;;;5082045;28;20200;-70
2022/09/15 04:38:40;;;;;;;0.88;0.88;;;;;;;;;;5085070;28;20196;-70
2022/09/15 04:41:07;;;;;;;1.60;0.90;;;;;;;;;;5084912;28;20220;-70
2022/09/15 04:43:34;;;;;;;1.95;0.82;;;;;;;;;;5084816;28;20197;-70
2022/09/15 04:46:00;;;;;;;2.10;1.05;;;;;;;;;;5084925;28;20197;-70
2022/09/15 04:48:27;;;;;;;1.13;0.88;;;;;;;;;;5085035;28;20196;-70
2022/09/15 04:50:53;;;;;;;3.65;0.95;;;;;;;;;;5085131;28;20192;-71
2022/09/15 04:53:20;;;;;;;1.55;1.02;;;;;;;;;;5084786;28;20234;-71
2022/09/15 04:55:47;;;;;;;0.88;0.80;;;;;;;;;;5084870;28;20284;-70
2022/09/15 04:58:14;;;;;;;0.60;0.60;;;;;;;;;;5084655;28;20254;-70
2022/09/15 05:00:42;;;;;;;1.25;1.00;;;;;;;;;;5084918;28;20216;-69
2022/09/15 05:03:08;;;;;;;2.80;1.25;;;;;;;;;;5084557;28;20242;-69
2022/09/15 05:05:34;;;;;;;2.60;0.82;;;;;;;;;;5084878;28;20220;-69
2022/09/15 05:08:01;;;;;;;1.55;1.10;;;;;;;;;;5084110;28;20201;-69
2022/09/15 05:10:27;;;;;;;1.20;1.10;;;;;;;;;;5084362;28;20242;-69
2022/09/15 05:12:55;;;;;;;3.50;0.80;;;;;;;;;;5084272;28;20500;-69
2022/09/15 05:15:23;;;;;;;1.58;0.70;;;;;;;;;;5084399;28;20200;-69
2022/09/15 05:17:49;;;;;;;2.10;1.00;;;;;;;;;;5084231;28;20200;-69
2022/09/15 05:20:16;;;;;;;2.40;1.00;;;;;;;;;;5084142;28;20235;-69
2022/09/15 05:22:42;;;;;;;1.50;1.02;;;;;;;;;;5083799;28;20224;-69
2022/09/15 05:25:09;;;;;;;0.80;0.80;;;;;;;;;;5083899;28;20258;-69
2022/09/15 05:27:35;;;;;;;2.25;1.00;;;;;;;;;;5083805;28;20235;-69
2022/09/15 05:30:04;;;;;;;1.00;1.00;;;;;;;;;;5083963;28;20219;-69
2022/09/15 05:32:31;;;;;;;1.30;0.98;;;;;;;;;;5083668;28;20306;-69
2022/09/15 05:34:57;;;;;;;1.40;0.80;;;;;;;;;;5083942;28;20200;-69
2022/09/15 05:37:23;;;;;;;1.10;1.00;;;;;;;;;;5083939;28;20196;-69
2022/09/15 05:39:50;;;;;;;1.08;0.80;;;;;;;;;;5083720;28;20205;-69
2022/09/15 05:42:16;;;;;;;1.48;0.80;;;;;;;;;;5083378;28;20281;-69
2022/09/15 05:44:42;;;;;;;1.10;1.00;;;;;;;;;;5083680;28;20456;-69
2022/09/15 05:47:10;;;;;;;3.03;0.88;;;;;;;;;;5083600;28;20381;-69
2022/09/15 05:49:36;;;;;;;1.80;0.80;;;;;;;;;;5083445;28;20421;-69
2022/09/15 05:52:03;;;;;;;6.30;1.83;;;;;;;;;;5083468;28;20491;-69
2022/09/15 05:54:29;;;;;;;1.15;1.00;;;;;;;;;;5083056;28;20456;-69
2022/09/15 05:56:55;;;;;;;1.60;0.95;;;;;;;;;;5083480;28;20267;-69
2022/09/15 05:59:22;;;;;;;1.98;1.15;;;;;;;;;;5083443;28;20200;-69
2022/09/15 06:01:48;;;;;;;3.60;0.80;;;;;;;;;;5083049;28;20224;-69
2022/09/15 06:04:16;;;;;;;1.17;0.90;;;;;;;;;;5082951;28;20199;-69
2022/09/15 06:06:43;;;;;;;2.38;1.00;;;;;;;;;;5083190;28;20251;-69
2022/09/15 06:09:09;;;;;;;1.05;0.77;;;;;;;;;;5082909;28;20201;-69
2022/09/15 06:11:35;;;;;;;4.30;0.95;;;;;;;;;;5083284;28;20200;-69
2022/09/15 06:14:02;;;;;;;1.20;0.70;;;;;;;;;;5082920;28;20420;-69
2022/09/15 06:16:31;;;;;;;2.70;1.08;;;;;;;;;;5082987;28;20196;-69
2022/09/15 06:18:58;;;;;;;0.70;0.60;;;;;;;;;;5082925;28;20203;-69
2022/09/15 06:21:28;;;;;;;1.88;1.13;;;;;;;;;;5082859;28;20216;-69
2022/09/15 06:23:55;;;;;;;0.90;0.90;;;;;;;;;;5082825;28;20242;-69
2022/09/15 06:26:22;;;;;;;2.22;0.82;;;;;;;;;;5083116;28;20377;-69
2022/09/15 06:28:49;;;;;;;0.90;0.90;;;;;;;;;;5083125;28;20203;-69
2022/09/15 06:31:16;;;;;;;1.20;1.10;;;;;;;;;;5065911;28;20211;-61
2022/09/15 06:33:43;;;;;;;1.00;0.90;;;;;;;;;;5070204;28;20501;-62
2022/09/15 06:36:10;;;;;;;1.48;0.88;;;;;;;;;;5076112;28;20212;-61
2022/09/15 06:38:38;;;;;;;1.85;0.98;;;;;;;;;;5075752;28;20242;-61
2022/09/15 06:41:04;;;;;;;0.75;0.75;;;;;;;;;;5076311;28;20219;-62
2022/09/15 06:43:31;;;;;;;2.70;0.90;;;;;;;;;;5074287;28;20254;-62
2022/09/15 06:46:01;;;;;;;1.50;0.80;;;;;;;;;;5074877;28;20366;-63
2022/09/15 06:48:28;;;;;;;1.00;1.00;;;;;;;;;;5073244;28;20212;-62
2022/09/15 06:50:54;;;;;;;1.40;0.55;;;;;;;;;;5074744;28;20213;-62
2022/09/15 06:53:21;;;;;;;0.95;0.95;;;;;;;;;;5074382;28;20212;-61
2022/09/15 06:55:48;;;;;;;0.82;0.50;;;;;;;;;;5074679;28;20682;-61
2022/09/15 06:58:15;;;;;;;1.98;1.42;;;;;;;;;;5075047;28;20216;-61
2022/09/15 07:00:41;;;;;;;1.85;0.60;;;;;;;;;;5074462;28;20227;-61
2022/09/15 07:03:07;;;;;;;1.10;1.10;;;;;;;;;;5074267;28;20416;-61
2022/09/15 07:05:34;;;;;;;1.70;1.52;;;;;;;;;;5073559;28;20236;-61
2022/09/15 07:08:00;;;;;;;1.20;1.20;;;;;;;;;;5075083;28;20295;-61
2022/09/15 07:10:26;;;;;;;0.80;0.80;;;;;;;;;;5074288;28;20235;-62
2022/09/15 07:12:54;;;;;;;1.77;1.67;;;;;;;;;;5073745;28;20207;-62
2022/09/15 07:15:22;;;;;;;1.40;1.30;;;;;;;;;;5074150;28;20208;-62
2022/09/15 07:17:48;;;;;;;2.60;1.48;;;;;;;;;;5074313;28;20218;-60
2022/09/15 07:20:14;;;;;;;2.80;1.30;;;;;;;;;;5073910;28;20216;-62
2022/09/15 07:22:41;;;;;;;1.70;1.40;;;;;;;;;;5072963;28;20236;-62
2022/09/15 07:25:07;;;;;;;1.90;0.80;;;;;;;;;;5073845;28;20221;-62
2022/09/15 07:27:33;;;;;;;1.88;0.77;;;;;;;;;;5074783;28;20220;-61
2022/09/15 07:30:02;;;;;;;3.05;0.80;;;;;;;;;;5074833;28;20224;-61
2022/09/15 07:32:28;;;;;;;1.00;0.95;;;;;;;;;;5073813;28;20239;-62
2022/09/15 07:34:55;;;;;;;4.25;0.98;;;;;;;;;;5074319;28;20212;-61
2022/09/15 07:37:21;;;;;;;2.38;0.95;;;;;;;;;;5074337;28;20243;-61
2022/09/15 07:39:48;;;;;;;2.50;1.10;;;;;;;;;;5072883;28;20220;-61
2022/09/15 07:42:14;;;;;;;3.20;1.42;;;;;;;;;;5071730;28;20487;-62
2022/09/15 07:44:40;;;;;;;1.40;1.33;;;;;;;;;;5074389;28;20447;-63
2022/09/15 07:47:08;;;;;;;1.10;0.88;;;;;;;;;;5074482;28;20279;-61
2022/09/15 07:49:34;;;;;;;1.33;1.08;;;;;;;;;;5074551;28;20219;-62
2022/09/15 07:52:01;;;;;;;2.17;0.95;;;;;;;;;;5073564;28;20208;-63
2022/09/15 07:54:27;;;;;;;3.90;1.20;;;;;;;;;;5074186;28;20212;-62
2022/09/15 07:56:53;;;;;;;3.33;1.00;;;;;;;;;;5074619;28;20212;-62
2022/09/15 07:59:19;;;;;;;3.13;1.00;;;;;;;;;;5074456;28;20254;-63
2022/09/15 08:01:46;;;;;;;3.17;1.10;;;;;;;;;;5073166;28;20236;-61
2022/09/15 08:04:13;;;;;;;3.05;1.00;;;;;;;;;;5073481;28;20212;-60
2022/09/15 08:06:40;;;;;;;1.45;0.70;;;;;;;;;;5073553;28;20235;-62
2022/09/15 08:09:06;;;;;;;1.38;1.10;;;;;;;;;;5073895;28;20515;-62
2022/09/15 08:11:32;;;;;;;5.38;1.08;;;;;;;;;;5074600;28;20208;-61
2022/09/15 08:14:00;;;;;;;1.15;0.90;;;;;;;;;;5077592;28;20416;-62
2022/09/15 08:16:27;;;;;;;1.67;0.93;;;;;;;;;;5077760;28;20212;-62
2022/09/15 08:18:54;;;;;;;3.28;1.08;;;;;;;;;;5078062;28;20212;-62
2022/09/15 08:21:22;;;;;;;1.48;1.02;;;;;;;;;;5078013;28;20212;-62
2022/09/15 08:23:50;;;;;;;4.88;1.20;;;;;;;;;;5077457;28;20212;-61
2022/09/15 08:26:16;;;;;;;1.80;0.98;;;;;;;;;;5077948;28;20216;-61
2022/09/15 08:28:42;;;;;;;2.42;0.98;;;;;;;;;;5077584;28;20279;-62
2022/09/15 08:31:10;;;;;;;0.80;0.80;;;;;;;;;;5077396;28;20216;-61
2022/09/15 08:33:37;;;;;;;1.10;1.00;;;;;;;;;;5076559;28;20632;-62
2022/09/15 08:36:04;;;;;;;1.15;1.10;;;;;;;;;;5077611;28;20773;-62
2022/09/15 08:38:32;;;;;;;1.40;0.88;;;;;;;;;;5077126;28;20212;-62
2022/09/15 08:40:59;;;;;;;4.97;1.10;;;;;;;;;;5077068;28;20212;-62
2022/09/15 08:43:27;;;;;;;2.38;1.02;;;;;;;;;;5075979;28;20236;-62
2022/09/15 08:45:56;;;;;;;2.85;1.60;;;;;;;;;;5076986;28;20453;-61
2022/09/15 08:48:26;;;;;;;1.27;1.10;;;;;;;;;;5077301;28;20273;-62
2022/09/15 08:50:53;;;;;;;2.53;1.08;;;;;;;;;;5076796;28;20213;-63
2022/09/15 08:53:21;;;;;;;2.28;1.13;;;;;;;;;;5076127;28;20212;-62
2022/09/15 08:55:50;;;;;;;1.08;1.05;;;;;;;;;;5076813;28;20212;-62
2022/09/15 08:58:17;;;;;;;3.50;1.58;;;;;;;;;;5076793;28;20220;-62
2022/09/15 09:00:44;;;;;;;1.75;1.30;;;;;;;;;;5077149;28;20488;-61
2022/09/15 09:03:21;;;;;;;1.30;1.20;;;;;;;;;;5076825;28;20235;-62
2022/09/15 09:05:51;;;;;;;2.60;1.00;;;;;;;;;;5076555;28;20396;-62
2022/09/15 09:08:25;;;;;;;4.50;1.25;;;;;;;;;;5076580;28;20523;-60
2022/09/15 09:10:54;;;;;;;5.35;1.33;;;;;;;;;;5076438;28;20212;-60
2022/09/15 09:13:25;;;;;;;2.97;1.00;;;;;;;;;;5076190;28;20208;-61
2022/09/15 09:15:59;;;;;;;1.08;1.08;;;;;;;;;;5076589;28;20247;-62
2022/09/15 09:18:49;;;;;;;1.13;1.05;;;;;;;;;;5077115;28;20224;-62
2022/09/15 09:21:19;;;;;;;1.10;1.00;;;;;;;;;;5059578;28;20218;-63
2022/09/15 09:23:50;;;;;;;2.33;1.02;;;;;;;;;;5075810;28;20228;-62
2022/09/15 09:26:17;;;;;;;1.63;1.10;;;;;;;;;;5075952;28;20306;-61
2022/09/15 09:28:46;;;;;;;2.58;1.20;;;;;;;;;;5076268;28;20531;-62
2022/09/15 09:31:17;;;;;;;2.15;1.13;;;;;;;;;;5076038;28;20219;-62
2022/09/15 09:33:44;;;;;;;3.67;1.20;;;;;;;;;;5075775;28;20247;-62
2022/09/15 09:36:11;;;;;;;2.47;1.13;;;;;;;;;;5076254;28;20212;-61
2022/09/15 09:38:38;;;;;;;2.25;0.93;;;;;;;;;;5075862;28;20524;-61
2022/09/15 09:41:05;;;;;;;1.25;0.80;;;;;;;;;;5076078;28;20212;-62
2022/09/15 09:43:33;;;;;;;0.98;0.93;;;;;;;;;;5076169;28;20232;-62
2022/09/15 09:45:59;;;;;;;1.17;0.60;;;;;;;;;;5076409;28;20446;-63
2022/09/15 09:48:27;;;;;;;2.33;0.68;;;;;;;;;;5076393;28;20239;-61
2022/09/15 09:50:54;;;;;;;1.77;0.80;;;;;;;;;;5075899;28;20204;-62
2022/09/15 09:53:27;;;;;;;2.10;1.00;;;;;;;;;;5075275;28;20215;-62
2022/09/15 09:55:54;;;;;;;0.80;0.80;;;;;;;;;;5075773;28;20212;-62
2022/09/15 09:58:22;;;;;;;2.25;0.80;;;;;;;;;;5075792;28;20208;-62
2022/09/15 10:00:50;;;;;;;1.33;0.65;;;;;;;;;;5074978;28;20563;-63
2022/09/15 10:03:17;;;;;;;2.22;1.10;;;;;;;;;;5075526;28;20262;-62
2022/09/15 10:05:44;;;;;;;2.20;0.90;;;;;;;;;;5075415;28;20673;-63
2022/09/15 10:08:18;;;;;;;2.13;0.55;;;;;;;;;;5075747;28;20396;-62
2022/09/15 10:10:51;;;;;;;0.57;0.57;;;;;;;;;;5074785;28;20224;-61
2022/09/15 10:13:17;;;;;;;1.58;0.80;;;;;;;;;;5074856;28;20209;-61
2022/09/15 10:15:43;;;;;;;0.85;0.85;;;;;;;;;;5074896;28;20213;-61
2022/09/15 10:18:25;;;;;;;0.75;0.70;;;;;;;;;;5075844;28;20286;-61
2022/09/15 10:20:51;;;;;;;1.50;0.75;;;;;;;;;;5075462;28;20537;-61
2022/09/15 10:23:24;;;;;;;0.60;0.60;;;;;;;;;;5074781;28;20232;-61
2022/09/15 10:25:51;;;;;;;1.75;0.90;;;;;;;;;;5075416;28;20281;-61
2022/09/15 10:28:18;;;;;;;1.42;0.60;;;;;;;;;;5075276;28;20423;-61
2022/09/15 10:30:57;;;;;;;0.30;0.30;;;;;;;;;;5075246;28;20223;-61
2022/09/15 10:33:25;;;;;;;1.13;0.60;;;;;;;;;;5075486;28;20428;-61
2022/09/15 10:35:53;;;;;;;0.32;0.30;;;;;;;;;;5074864;28;20220;-60
2022/09/15 10:38:25;;;;;;;0.40;0.40;;;;;;;;;;5075607;28;20498;-61
2022/09/15 10:40:55;;;;;;;1.65;0.40;;;;;;;;;;5075226;28;20216;-61
2022/09/15 10:43:27;;;;;;;1.08;0.43;;;;;;;;;;5074588;28;20613;-60
2022/09/15 10:45:59;;;;;;;0.75;0.50;;;;;;;;;;5075372;28;20213;-60
2022/09/15 10:48:31;;;;;;;1.38;1.27;;;;;;;;;;5074942;28;20231;-60
2022/09/15 10:51:00;;;;;;;0.30;0.30;;;;;;;;;;5074545;28;20519;-61
2022/09/15 10:53:35;;;;;;;0.30;0.30;;;;;;;;;;5074474;28;20209;-61
2022/09/15 10:56:07;;;;;;;0.77;0.77;;;;;;;;;;5074972;28;20215;-62
2022/09/15 10:58:40;;;;;;;0.40;0.40;;;;;;;;;;5075086;28;20482;-63
2022/09/15 11:01:14;;;;;;;0.30;0.30;;;;;;;;;;5070969;28;20459;-63
2022/09/15 11:03:52;;;;;;;0.88;0.40;;;;;;;;;;5074158;28;20227;-63
2022/09/15 11:06:23;;;;;;;0.38;0.20;;;;;;;;;;5074084;28;20227;-63
2022/09/15 11:08:58;;;;;;;0.20;0.20;;;;;;;;;;5074711;28;20212;-63
2022/09/15 11:11:30;;;;;;;0.20;0.20;;;;;;;;;;5074207;28;20212;-61
2022/09/15 11:14:06;;;;;;;0.82;0.50;;;;;;;;;;5074036;28;20215;-61
2022/09/15 11:16:39;;;;;;;1.65;0.50;;;;;;;;;;5075264;28;20204;-61
2022/09/15 11:19:13;;;;;;;0.50;0.50;;;;;;;;;;5074062;28;20536;-62
2022/09/15 11:21:41;;;;;;;0.77;0.65;;;;;;;;;;5071593;28;20230;-62
2022/09/15 11:24:21;;;;;;;1.70;0.82;;;;;;;;;;5074863;28;20220;-61
2022/09/15 11:26:52;;;;;;;0.63;0.63;;;;;;;;;;5074773;28;20227;-62
2022/09/15 11:29:20;;;;;;;3.70;0.70;;;;;;;;;;5074705;28;20216;-60
2022/09/15 11:31:47;;;;;;;0.98;0.93;;;;;;;;;;5074463;28;20210;-61
2022/09/15 11:34:17;;;;;;;0.85;0.77;;;;;;;;;;5074056;28;20513;-63
2022/09/15 11:36:46;;;;;;;0.90;0.90;;;;;;;;;;5074312;28;20216;-61
2022/09/15 11:39:16;;;;;;;0.73;0.70;;;;;;;;;;5074425;28;20270;-62
2022/09/15 11:41:46;;;;;;;0.90;0.90;;;;;;;;;;5073880;28;20212;-62
2022/09/15 11:44:18;;;;;;;1.40;0.85;;;;;;;;;;5074083;28;20232;-63
2022/09/15 11:46:57;;;;;;;1.10;0.98;;;;;;;;;;5076829;28;20413;-64
2022/09/15 11:49:27;;;;;;;3.25;1.25;;;;;;;;;;5078730;28;20279;-62
2022/09/15 11:51:56;;;;;;;1.45;1.33;;;;;;;;;;5077542;28;20212;-62
2022/09/15 11:54:25;;;;;;;2.45;1.85;;;;;;;;;;5078156;28;20255;-61
2022/09/15 11:56:52;;;;;;;1.45;1.45;;;;;;;;;;5078219;28;20519;-63
2022/09/15 11:59:22;;;;;;;3.33;1.80;;;;;;;;;;5078233;28;20457;-63
2022/09/15 12:01:50;;;;;;;1.98;1.88;;;;;;;;;;5077808;28;20216;-62
2022/09/15 12:04:19;;;;;;;2.00;1.85;;;;;;;;;;5077777;28;20561;-62
2022/09/15 12:06:49;;;;;;;2.25;2.10;;;;;;;;;;5077958;28;20227;-62
2022/09/15 12:09:16;;;;;;;1.90;1.80;;;;;;;;;;5078287;28;20230;-63
2022/09/15 12:11:43;;;;;;;4.97;1.73;;;;;;;;;;5077897;28;20212;-62
2022/09/15 12:14:12;;;;;;;2.38;1.58;;;;;;;;;;5077175;28;20208;-62
2022/09/15 12:16:38;;;;;;;1.95;1.77;;;;;;;;;;5077843;28;20519;-62
2022/09/15 12:19:08;;;;;;;2.00;1.67;;;;;;;;;;5078095;28;20220;-62
2022/09/15 12:21:37;;;;;;;2.13;1.98;;;;;;;;;;5077883;28;20212;-61
2022/09/15 12:24:09;;;;;;;5.85;2.35;;;;;;;;;;5077692;28;20235;-62
2022/09/15 12:26:35;;;;;;;2.75;1.85;;;;;;;;;;5077547;28;20528;-62
2022/09/15 12:29:02;;;;;;;2.72;2.13;;;;;;;;;;5077663;28;20511;-62
2022/09/15 12:31:30;;;;;;;3.38;1.90;;;;;;;;;;5077490;28;20212;-63
2022/09/15 12:33:57;;;;;;;2.50;2.08;;;;;;;;;;5077167;28;20217;-64
2022/09/15 12:36:40;;;;;;;2.17;2.05;;;;;;;;;;5077695;28;20212;-63
2022/09/15 12:39:34;;;;;;;3.00;2.20;;;;;;;;;;5077439;28;20216;-63
2022/09/15 12:42:12;;;;;;;3.85;1.75;;;;;;;;;;5040508;28;20219;-63
2022/09/15 12:44:41;;;;;;;2.58;1.88;;;;;;;;;;5073785;28;20358;-63
2022/09/15 12:47:17;;;;;;;3.88;1.95;;;;;;;;;;5076977;28;20223;-62
2022/09/15 12:49:44;;;;;;;2.10;2.00;;;;;;;;;;5076822;28;20219;-62
2022/09/15 12:52:11;;;;;;;3.05;2.60;;;;;;;;;;5076797;28;20212;-62
2022/09/15 12:54:39;;;;;;;3.75;2.70;;;;;;;;;;5077186;28;20520;-64
2022/09/15 12:57:07;;;;;;;2.22;2.13;;;;;;;;;;5076890;28;20220;-63
2022/09/15 12:59:34;;;;;;;2.75;1.90;;;;;;;;;;5073393;28;20212;-63
2022/09/15 13:02:01;;;;;;;2.95;2.15;;;;;;;;;;5076357;28;20249;-62
2022/09/15 13:04:42;;;;;;;2.70;2.50;;;;;;;;;;5076578;28;20499;-63
2022/09/15 13:07:21;;;;;;;3.60;2.13;;;;;;;;;;5076855;28;20279;-63
2022/09/15 13:09:55;;;;;;;4.90;2.92;;;;;;;;;;5076771;28;20268;-62
2022/09/15 13:12:24;;;;;;;2.75;2.65;;;;;;;;;;5076577;28;20235;-61
2022/09/15 13:14:53;;;;;;;3.35;2.72;;;;;;;;;;5077532;28;20512;-62
2022/09/15 13:17:21;;;;;;;16.55;3.65;;;;;;;;;;5076478;28;20234;-63
2022/09/15 13:19:50;;;;;;;4.72;3.35;;;;;;;;;;5077136;28;20220;-61
2022/09/15 13:22:19;;;;;;;4.07;3.50;;;;;;;;;;5076034;28;20212;-62
2022/09/15 13:24:47;;;;;;;10.68;3.97;;;;;;;;;;5076465;28;20228;-61
2022/09/15 13:27:14;;;;;;;3.60;3.30;;;;;;;;;;5076228;28;20220;-62
2022/09/15 13:29:45;;;;;;;6.70;3.38;;;;;;;;;;5076429;28;20215;-61
2022/09/15 13:32:19;;;;;;;3.53;2.88;;;;;;;;;;5075418;28;20438;-62
2022/09/15 13:35:07;;;;;;;4.35;2.80;;;;;;;;;;5077051;28;20468;-63
2022/09/15 13:37:44;;;;;;;9.80;3.05;;;;;;;;;;5073059;28;20449;-63
2022/09/15 13:40:26;;;;;;;3.47;2.88;;;;;;;;;;5073760;28;20258;-64
2022/09/15 13:43:01;;;;;;;5.03;2.75;;;;;;;;;;5073583;28;20411;-63
2022/09/15 13:45:36;;;;;;;4.53;2.63;;;;;;;;;;5076595;28;20216;-61
2022/09/15 13:48:12;;;;;;;3.92;2.75;;;;;;;;;;5076881;28;20543;-62
2022/09/15 13:50:39;;;;;;;2.67;2.42;;;;;;;;;;5076241;28;20215;-61
2022/09/15 13:53:23;;;;;;;4.55;2.40;;;;;;;;;;5075645;28;20212;-60
2022/09/15 13:55:50;;;;;;;4.35;2.40;;;;;;;;;;5076005;28;20534;-60
2022/09/15 13:58:19;;;;;;;4.53;2.53;;;;;;;;;;5075302;28;20524;-61
2022/09/15 14:00:48;;;;;;;2.58;2.38;;;;;;;;;;5075310;28;20270;-63
2022/09/15 14:03:18;;;;;;;3.75;2.10;;;;;;;;;;5075242;28;20223;-63
2022/09/15 14:05:45;;;;;;;4.38;2.22;;;;;;;;;;5075397;28;20299;-63
2022/09/15 14:08:14;;;;;;;2.30;2.10;;;;;;;;;;5074915;28;20223;-62
2022/09/15 14:10:44;;;;;;;3.65;2.10;;;;;;;;;;5074684;28;20212;-62
2022/09/15 14:13:13;;;;;;;2.17;1.90;;;;;;;;;;5074995;28;20516;-61
2022/09/15 14:15:39;;;;;;;4.10;1.90;;;;;;;;;;5075793;28;20212;-62
2022/09/15 14:18:18;;;;;;;4.53;2.00;;;;;;;;;;5075982;28;20212;-63
2022/09/15 14:20:44;;;;;;;1.80;1.70;;;;;;;;;;5072660;28;20403;-62
2022/09/15 14:23:15;;;;;;;2.40;2.00;;;;;;;;;;5074545;28;20222;-63
2022/09/15 14:25:45;;;;;;;2.22;2.08;;;;;;;;;;5075195;28;20223;-62
2022/09/15 14:28:18;;;;;;;5.85;1.92;;;;;;;;;;5075061;28;20258;-64
2022/09/15 14:30:46;;;;;;;3.25;2.17;;;;;;;;;;5074876;28;20257;-64
2022/09/15 14:33:14;;;;;;;5.35;2.17;;;;;;;;;;5074742;28;20212;-63
2022/09/15 14:35:42;;;;;;;6.18;1.95;;;;;;;;;;5074991;28;20258;-62
2022/09/15 14:38:19;;;;;;;2.85;1.77;;;;;;;;;;5075540;28;20211;-61
2022/09/15 14:40:49;;;;;;;3.50;1.80;;;;;;;;;;5074740;28;20212;-61
2022/09/15 14:43:23;;;;;;;3.13;1.52;;;;;;;;;;5074498;28;20466;-62
2022/09/15 14:45:49;;;;;;;2.85;1.67;;;;;;;;;;5074673;28;20537;-62
2022/09/15 14:48:16;;;;;;;2.83;1.80;;;;;;;;;;5075198;28;20212;-63
2022/09/15 14:50:45;;;;;;;2.15;1.98;;;;;;;;;;5074257;28;20212;-62
2022/09/15 14:53:13;;;;;;;7.55;2.00;;;;;;;;;;5074559;28;20219;-62